Latest Weather Observations for Telfer

IDW60801

Issued at 9:43 am WST Tuesday 22 September 2020 (issued every 10 minutes, with the page automatically refreshed every 10 minutes)

About weather observations | Map of weather stations | Latest weather observations for WA | Other Formats
Station Details ID: 013030 Name: TELFER AERO Lat: -21.71 Lon: 122.23 Height: 291.9 m
Data from the previous 72 hours. | See also: Recent months at Telfer
Date/Time
WST
Temp
°C
App
Temp
°C
Dew
Point
°C
Rel
Hum
%
Delta-T
°C
Wind Press
QNH
hPa
Press
MSL
hPa
Rain since
9am
mm
Dir  Spd
km/h
Gust
km/h
Spd
kts
Gust
kts
22/09:30am 25.4 16.0 -6.0 12 13.1 SE 35 46 19 25 1018.8 1017.4 0.0
22/09:00am 24.1 14.4 -6.0 13 12.4 SE 37 46 20 25 1019.0 1017.6 0.0
22/08:30am 22.6 13.2 -6.2 14 11.7 SE 35 44 19 24 1019.1 1017.7 0.0
22/08:00am 21.7 12.4 -5.2 16 11.0 SE 35 52 19 28 1019.0 1017.6 0.0
22/07:30am 19.6 10.9 -5.3 18 10.0 SE 32 41 17 22 1018.8 1017.4 0.0
22/07:00am 18.0 9.7 -5.3 20 9.2 SE 30 41 16 22 1018.4 1016.9 0.0
22/06:30am 15.8 8.4 -7.7 19 8.6 SE 24 30 13 16 1018.1 1016.6 0.0
22/06:00am 14.6 7.3 -6.3 23 7.8 SE 24 28 13 15 1017.8 1016.3 0.0
22/05:30am 14.9 7.4 -8.5 19 8.3 SE 24 30 13 16 1017.3 1015.8 0.0
22/05:00am 15.6 8.0 -5.4 23 8.1 SSE 26 32 14 17 1016.9 1015.4 0.0
22/04:30am 15.8 8.5 -5.8 22 8.2 SSE 24 32 13 17 1016.4 1015.0 0.0
22/04:00am 16.1 8.9 -5.6 22 8.3 SSE 24 30 13 16 1016.1 1014.7 0.0
22/03:30am 16.3 9.5 -5.4 22 8.4 SSE 22 26 12 14 1016.0 1014.6 0.0
22/03:00am 16.9 10.5 -4.9 22 8.6 SSE 20 28 11 15 1015.8 1014.4 0.0
22/02:30am 16.5 10.1 -5.3 22 8.5 SSE 20 26 11 14 1015.9 1014.5 0.0
22/02:00am 16.7 10.5 -5.1 22 8.5 SE 19 24 10 13 1016.0 1014.6 0.0
22/01:30am 17.1 10.8 -5.4 21 8.8 SE 19 28 10 15 1015.9 1014.5 0.0
22/01:00am 19.1 12.3 -5.0 19 9.7 SSE 22 28 12 15 1015.9 1014.5 0.0
22/12:30am 18.7 12.4 -5.4 19 9.6 SSE 19 22 10 12 1016.1 1014.7 0.0
22/12:00am 18.6 12.8 -4.8 20 9.4 SE 17 20 9 11 1016.3 1014.9 0.0
 
Date/Time
WST
Temp
°C
App
Temp
°C
Dew
Point
°C
Rel
Hum
%
Delta-T
°C
Wind Press
QNH
hPa
Press
MSL
hPa
Rain since
9am
mm
Dir  Spd
km/h
Gust
km/h
Spd
kts
Gust
kts
21/11:30pm 19.8 13.6 -4.5 19 9.9 SSE 19 22 10 12 1016.3 1014.9 0.0
21/11:00pm 20.2 14.0 -4.8 18 10.2 SE 19 24 10 13 1016.3 1014.9 0.0
21/10:30pm 20.8 14.6 -5.1 17 10.6 SSE 19 24 10 13 1016.4 1015.0 0.0
21/10:00pm 21.4 15.0 -5.4 16 10.9 SSE 20 24 11 13 1016.5 1015.1 0.0
21/09:30pm 22.4 15.6 -5.5 15 11.5 SSE 22 30 12 16 1016.5 1015.1 0.0
21/09:00pm 23.3 16.1 -5.7 14 12.0 SSE 24 32 13 17 1016.4 1015.0 0.0
21/08:30pm 23.9 17.0 -6.2 13 12.4 SSE 22 28 12 15 1016.1 1014.7 0.0
21/08:00pm 24.5 18.2 -5.7 13 12.6 SSE 19 24 10 13 1015.8 1014.4 0.0
21/07:30pm 24.5 19.1 -4.7 14 12.4 SSE 15 19 8 10 1015.6 1014.2 0.0
21/07:00pm 24.9 19.5 -4.4 14 12.6 SSE 15 17 8 9 1015.2 1013.7 0.0
21/06:30pm 25.7 20.7 -4.7 13 13.1 SSE 13 17 7 9 1014.9 1013.4 0.0
21/06:00pm 26.4 20.9 -5.3 12 13.6 SSE 15 19 8 10 1014.6 1013.1 0.0
21/05:30pm 27.7 21.8 -5.4 11 14.3 SSE 17 22 9 12 1014.3 1012.8 0.0
21/05:00pm 28.2 22.7 -5.0 11 14.5 S 15 20 8 11 1014.0 1012.5 0.0
21/04:30pm 28.8 22.9 -5.8 10 15.0 SSE 17 24 9 13 1013.9 1012.4 0.0
21/04:00pm 28.5 22.2 -6.0 10 14.9 SSE 19 28 10 15 1014.0 1012.5 0.0
21/03:30pm 28.3 22.0 -6.2 10 14.8 ESE 19 26 10 14 1014.1 1012.6 0.0
21/03:00pm 28.7 22.2 -5.9 10 15.0 SE 20 30 11 16 1014.1 1012.6 0.0
21/02:30pm 28.5 21.5 -7.4 9 15.1 SSE 22 32 12 17 1014.3 1012.8 0.0
21/02:00pm 28.4 21.4 -7.5 9 15.0 SSE 22 33 12 18 1014.4 1012.9 0.0
21/01:30pm 28.3 20.9 -7.6 9 15.0 SSE 24 35 13 19 1014.7 1013.2 0.0
21/01:00pm 28.2 21.2 -7.6 9 14.9 SE 22 37 12 20 1015.2 1013.7 0.0
21/12:30pm 26.8 19.0 -7.3 10 14.1 SE 26 37 14 20 1015.7 1014.3 0.0
21/12:00pm 26.1 17.6 -6.6 11 13.6 SE 30 41 16 22 1016.1 1014.7 0.0
21/11:30am 26.4 17.6 -6.4 11 13.8 SE 32 44 17 24 1016.6 1015.2 0.0
21/11:19am 25.6 16.8 -5.9 12 13.2 SE 32 50 17 27 1016.8 1015.3 0.0
21/11:00am 25.7 16.7 -5.8 12 13.3 SE 33 44 18 24 1017.3 1015.8 0.0
21/10:31am 25.3 16.5 -6.1 12 13.1 SE 32 50 17 27 1017.8 1016.3 0.0
21/10:30am 25.1 16.1 -6.3 12 13.0 SE 33 50 18 27 1017.8 1016.3 0.0
21/10:02am 24.5 15.0 -7.9 11 13.0 SE 35 54 19 29 1018.0 1016.5 0.0
21/10:00am 24.1 14.4 -6.0 13 12.4 SE 37 54 20 29 1018.0 1016.5 0.0
21/09:30am 23.0 13.4 -5.0 15 11.7 SE 37 48 20 26 1018.3 1016.8 0.0
21/09:00am 22.2 12.1 -5.6 15 11.4 SE 39 50 21 27 1018.7 1017.3 0.0
21/08:30am 22.1 12.0 -5.7 15 11.4 SE 39 52 21 28 1018.4 1016.9 0.0
21/08:00am 20.7 10.1 -6.8 15 10.8 SE 41 54 22 29 1018.3 1016.8 0.0
21/07:30am 19.7 10.3 -6.8 16 10.3 SE 35 48 19 26 1017.8 1016.3 0.0
21/07:00am 18.7 10.6 -6.8 17 9.8 SE 28 41 15 22 1017.3 1015.8 0.0
21/06:58am 18.6 10.5 -6.9 17 9.8 SE 28 41 15 22 1017.3 1015.8 0.0
21/06:30am 17.5 11.3 -8.6 16 9.6 SE 17 22 9 12 1016.9 1015.4 0.0
21/06:00am 16.7 10.9 -9.2 16 9.3 SSE 15 20 8 11 1016.4 1015.0 0.0
21/05:30am 16.9 10.8 -7.5 18 9.1 SE 17 22 9 12 1016.1 1014.7 0.0
21/05:00am 17.6 11.1 -7.7 17 9.5 SE 19 26 10 14 1015.6 1014.2 0.0
21/04:30am 18.0 11.4 -9.0 15 9.9 ESE 19 22 10 12 1015.3 1013.8 0.0
21/04:00am 18.3 11.7 -9.6 14 10.1 ESE 19 22 10 12 1014.9 1013.4 0.0
21/03:30am 18.7 12.6 -7.6 16 10.0 ESE 17 20 9 11 1014.7 1013.2 0.0
21/03:00am 19.2 12.8 -7.2 16 10.2 ESE 19 24 10 13 1014.4 1012.9 0.0
21/02:30am 19.8 13.7 -7.5 15 10.5 ESE 17 22 9 12 1014.4 1012.9 0.0
21/02:00am 20.4 14.0 -7.1 15 10.7 ESE 19 24 10 13 1014.3 1012.8 0.0
21/01:30am 21.0 14.1 -6.6 15 11.0 SE 22 32 12 17 1014.1 1012.6 0.0
21/01:00am 21.6 14.2 -7.0 14 11.3 SE 24 32 13 17 1014.2 1012.7 0.0
21/12:30am 22.1 14.4 -6.6 14 11.5 SE 26 33 14 18 1014.1 1012.6 0.0
21/12:00am 22.5 14.7 -7.3 13 11.8 SSE 26 32 14 17 1014.3 1012.8 0.0
 
Date/Time
WST
Temp
°C
App
Temp
°C
Dew
Point
°C
Rel
Hum
%
Delta-T
°C
Wind Press
QNH
hPa
Press
MSL
hPa
Rain since
9am
mm
Dir  Spd
km/h
Gust
km/h
Spd
kts
Gust
kts
20/11:30pm 23.1 14.9 -7.8 12 12.2 SSE 28 35 15 19 1014.3 1012.8 0.0
20/11:00pm 23.6 15.4 -7.4 12 12.4 SSE 28 37 15 20 1014.3 1012.8 0.0
20/10:30pm 24.0 16.7 -6.1 13 12.4 SSE 24 33 13 18 1014.4 1012.9 0.0
20/10:00pm 24.8 17.2 -5.5 13 12.7 SSE 26 35 14 19 1014.3 1012.8 0.0
20/09:30pm 25.7 17.8 -4.7 13 13.1 SSE 28 43 15 23 1014.2 1012.7 0.0
20/09:00pm 26.5 19.8 -1.3 16 12.8 S 24 30 13 16 1014.1 1012.6 0.0
20/08:30pm 27.2 20.4 0.8 18 12.7 S 26 32 14 17 1013.8 1012.3 0.0
20/08:00pm 27.8 20.7 3.5 21 12.3 S 30 37 16 20 1013.3 1011.8 0.0
20/07:45pm 28.2 21.7 4.5 22 12.3 S 28 39 15 21 1013.0 1011.6 0.0
20/07:30pm 28.9 24.9 5.1 22 12.5 S 15 19 8 10 1012.7 1011.3 0.0
20/07:00pm 29.5 25.3 5.6 22 12.7 SSW 17 26 9 14 1012.4 1010.9 0.0
20/06:30pm 29.9 26.2 6.5 23 12.6 SW 15 20 8 11 1012.0 1010.5 0.0
20/06:00pm 30.2 25.9 6.8 23 12.7 SW 19 24 10 13 1011.7 1010.2 0.0
20/05:30pm 30.7 25.7 6.6 22 13.1 SW 22 32 12 17 1011.5 1010.0 0.0
20/05:00pm 31.4 27.1 7.1 22 13.4 SW 19 28 10 15 1011.3 1009.8 0.0
20/04:30pm 31.8 27.4 7.5 22 13.5 WSW 20 28 11 15 1011.2 1009.7 0.0
20/04:00pm 32.4 28.0 7.3 21 13.9 WSW 20 32 11 17 1011.0 1009.5 0.0
20/03:30pm 32.9 27.8 7.7 21 14.1 WSW 24 32 13 17 1011.0 1009.5 0.0
20/03:00pm 31.9 27.1 7.5 22 13.6 WSW 22 33 12 18 1011.0 1009.5 0.0
20/02:30pm 33.1 27.3 7.9 21 14.2 W 28 35 15 19 1011.2 1009.7 0.0
20/02:00pm 32.5 28.1 7.4 21 14.0 W 20 33 11 18 1011.3 1009.8 0.0
20/01:30pm 32.2 27.9 7.1 21 13.9 SW 19 30 10 16 1011.8 1010.3 0.0
20/01:00pm 31.6 27.2 7.3 22 13.4 SW 20 32 11 17 1012.3 1010.8 0.0
20/12:30pm 30.8 26.8 6.6 22 13.2 WSW 17 28 9 15 1012.6 1011.2 0.0
20/12:00pm 30.8 27.2 6.6 22 13.2 SSW 15 24 8 13 1013.2 1011.7 0.0
20/11:30am 29.4 25.7 6.1 23 12.5 SSW 15 24 8 13 1013.7 1012.2 0.0
20/11:00am 29.6 25.5 6.3 23 12.5 SE 17 24 9 13 1014.0 1012.5 0.0
20/10:30am 29.0 24.0 4.5 21 12.7 S 20 30 11 16 1014.5 1013.0 0.0
20/10:00am 28.1 23.5 3.7 21 12.4 SSE 17 26 9 14 1014.9 1013.4 0.0
20/09:30am 26.9 21.8 4.0 23 11.6 S 20 28 11 15 1015.1 1013.6 0.0
20/09:00am 26.9 21.3 3.4 22 11.8 S 22 30 12 16 1015.2 1013.7 0.0
20/08:30am 26.7 21.1 3.2 22 11.8 S 22 28 12 15 1015.2 1013.7 0.0
20/08:00am 25.7 19.9 2.4 22 11.4 S 22 28 12 15 1015.0 1013.5 0.0
20/07:30am 25.0 19.7 3.0 24 10.9 S 20 28 11 15 1014.6 1013.1 0.0
20/07:00am 23.8 19.2 3.7 27 10.0 S 17 20 9 11 1014.2 1012.7 0.0
20/06:30am 22.8 19.0 3.9 29 9.3 SSE 13 19 7 10 1013.8 1012.3 0.0
20/06:00am 22.3 19.3 6.1 35 8.3 SSE 11 17 6 9 1013.4 1011.9 0.0
20/05:30am 22.1 19.6 9.6 45 6.8 SSW 13 15 7 8 1012.9 1011.5 0.0
20/05:00am 22.5 20.3 10.9 48 6.5 SW 13 17 7 9 1012.6 1011.2 0.0
20/04:30am 22.5 21.0 11.9 51 6.0 SW 11 13 6 7 1012.0 1010.5 0.0
20/04:00am 22.6 21.7 12.5 53 5.8 W 9 19 5 10 1011.7 1010.2 0.0
20/03:30am 23.1 21.2 13.0 53 5.9 WSW 15 20 8 11 1011.4 1009.9 0.0
20/03:00am 23.1 20.7 13.8 55 5.5 WSW 19 26 10 14 1011.4 1009.9 0.0
20/02:30am 22.9 20.5 13.9 57 5.3 W 19 22 10 12 1011.4 1009.9 0.0
20/02:00am 23.1 21.2 14.1 57 5.3 WNW 17 22 9 12 1011.4 1009.9 0.0
20/01:30am 23.6 21.4 14.3 56 5.6 WNW 19 24 10 13 1011.5 1010.0 0.0
20/01:00am 23.8 21.6 14.5 56 5.6 WNW 19 24 10 13 1011.5 1010.0 0.0
20/12:30am 24.6 22.3 14.7 54 6.0 WNW 20 30 11 16 1011.7 1010.2 0.0
20/12:00am 24.9 22.2 14.7 53 6.2 NW 22 28 12 15 1011.8 1010.3 0.0
 
Date/Time
WST
Temp
°C
App
Temp
°C
Dew
Point
°C
Rel
Hum
%
Delta-T
°C
Wind Press
QNH
hPa
Press
MSL
hPa
Rain since
9am
mm
Dir  Spd
km/h
Gust
km/h
Spd
kts
Gust
kts
19/11:30pm 25.6 22.6 13.8 48 7.0 NW 22 28 12 15 1012.0 1010.5 0.0
19/11:00pm 26.3 23.2 13.4 45 7.7 NW 22 32 12 17 1012.0 1010.5 0.0
19/10:30pm 26.9 23.4 12.2 40 8.6 NW 22 30 12 16 1012.1 1010.6 0.0
19/10:00pm 27.6 23.7 10.8 35 9.6 NW 22 32 12 17 1012.1 1010.6 0.0
19/09:30pm 28.0 23.9 8.8 30 10.7 NW 20 26 11 14 1012.1 1010.6 0.0
19/09:00pm 28.3 23.7 6.4 25 11.7 NW 20 30 11 16 1011.9 1010.4 0.0
19/08:30pm 28.5 24.8 4.7 22 12.4 WNW 13 17 7 9 1011.5 1010.0 0.0
19/08:00pm 29.0 25.4 5.1 22 12.6 NW 13 15 7 8 1011.3 1009.8 0.0
19/07:30pm 29.8 25.8 5.1 21 13.0 WNW 15 17 8 9 1011.1 1009.6 0.0
19/07:00pm 30.3 26.1 -1.2 13 15.0 WNW 11 13 6 7 1010.7 1009.2 0.0
19/06:30pm 31.5 27.4 4.3 18 14.3 WNW 15 17 8 9 1010.1 1008.6 0.0
19/06:00pm 32.3 28.4 3.3 16 15.1 NW 13 17 7 9 1009.7 1008.2 0.0
19/05:30pm 33.3 26.9 3.2 15 15.7 NW 26 35 14 19 1009.4 1007.9 0.0
19/05:00pm 33.9 28.3 3.7 15 16.0 WNW 22 33 12 18 1009.3 1007.8 0.0
19/04:30pm 34.7 28.5 4.3 15 16.3 WNW 26 33 14 18 1009.3 1007.8 0.0
19/04:00pm 34.5 28.3 4.1 15 16.2 NW 26 35 14 19 1009.1 1007.6 0.0
19/03:30pm 34.4 28.1 4.0 15 16.2 WNW 26 39 14 21 1009.2 1007.7 0.0
19/03:00pm 34.7 27.7 4.3 15 16.3 WNW 30 43 16 23 1009.3 1007.8 0.0
19/02:30pm 34.2 27.7 4.8 16 15.8 NW 28 46 15 25 1009.7 1008.2 0.0
19/02:02pm 33.9 27.5 5.4 17 15.4 NW 28 52 15 28 1010.0 1008.5 0.0
19/02:00pm 34.2 28.3 5.7 17 15.6 NW 26 52 14 28 1010.1 1008.6 0.0
19/01:30pm 33.7 27.4 3.5 15 15.9 WNW 26 39 14 21 1010.5 1009.0 0.0
19/01:14pm 34.1 27.2 2.8 14 16.3 WNW 28 48 15 26 1010.7 1009.2 0.0
19/01:00pm 34.3 28.8 4.0 15 16.1 NW 22 39 12 21 1010.9 1009.4 0.0
19/12:32pm 33.3 27.1 4.1 16 15.5 NW 26 46 14 25 1011.4 1009.9 0.0
19/12:30pm 33.3 27.4 4.1 16 15.5 NW 24 43 13 23 1011.4 1009.9 0.0
19/12:00pm 33.4 28.3 5.9 18 15.0 NW 22 39 12 21 1012.0 1010.5 0.0
19/11:30am 32.6 27.8 7.4 21 14.0 NW 22 33 12 18 1012.7 1011.3 0.0
19/11:00am 31.4 27.4 9.0 25 12.7 NW 20 32 11 17 1013.3 1011.8 0.0
19/10:30am 30.4 26.5 9.3 27 12.0 NW 20 30 11 16 1013.8 1012.3 0.0
19/10:00am 29.1 25.9 9.8 30 11.0 NNW 17 24 9 13 1014.1 1012.6 0.0

Other formats

Comma delimited format used in spreadsheet applications
http://www.bom.gov.au/fwo/IDW60801/IDW60801.94319.axf

JavaScript Object Notation format (JSON) in row-major order
http://www.bom.gov.au/fwo/IDW60801/IDW60801.94319.json

Data quality

Most of these data are generated automatically and are frequently updated. Quality checks on data are not normally performed. It is possible for incorrect values to appear. Refer to information at About Latest Weather Observations and please check the disclaimer before using these data.